Time;durP1;ratioP1;P1;durP2;ratioP2;P2;SDS_P1;SDS_P2;PMS_P1;PMS_P2;Temp;Humidity;BMP_temperature;BMP_pressure;BME280_temperature;BME280_humidity;BME280_pressure;Samples;Min_cycle;Max_cycle;Signal;HPM_P1;HPM_P2
2022/01/06 00:00:43;;;;;;;4.83;2.50;;;;;;;3.77;100.00;100173.13;5015106;28;20215;-50
2022/01/06 00:03:09;;;;;;;6.37;3.27;;;;;;;3.79;100.00;100173.16;5016195;28;20184;-50
2022/01/06 00:05:34;;;;;;;6.17;2.90;;;;;;;3.81;100.00;100184.28;4980643;28;1095074;-50
2022/01/06 00:08:01;;;;;;;4.17;2.70;;;;;;;3.83;100.00;100185.16;5029515;28;20660;-50
2022/01/06 00:10:29;;;;;;;5.63;3.20;;;;;;;3.85;100.00;100180.94;5016210;28;20200;-50
2022/01/06 00:15:36;;;;;;;9.13;3.90;;;;;;;3.86;100.00;100179.22;5020892;28;20208;-50
2022/01/06 00:23:33;;;;;;;7.73;3.90;;;;;;;3.83;100.00;100177.50;5016071;28;20203;-50
2022/01/06 00:26:01;;;;;;;7.60;4.60;;;;;;;3.80;100.00;100175.72;5018851;28;20194;-50
2022/01/06 00:28:27;;;;;;;8.63;5.43;;;;;;;3.82;100.00;100175.75;5015804;28;20282;-50
2022/01/06 00:30:53;;;;;;;7.57;4.93;;;;;;;3.81;100.00;100174.88;5020217;28;20219;-50
2022/01/06 00:33:18;;;;;;;10.73;6.37;;;;;;;3.81;100.00;100174.03;5019762;28;20653;-50
2022/01/06 00:35:44;;;;;;;7.83;4.70;;;;;;;3.79;100.00;100170.59;5015204;28;20715;-50
2022/01/06 00:38:09;;;;;;;6.67;4.50;;;;;;;3.78;100.00;100176.53;5015003;28;20247;-50
2022/01/06 00:40:36;;;;;;;8.10;4.87;;;;;;;3.75;100.00;100176.47;5014593;28;20290;-50
2022/01/06 00:43:03;;;;;;;9.17;4.53;;;;;;;3.73;100.00;100181.59;5018767;28;20183;-50
2022/01/06 00:45:29;;;;;;;5.33;3.53;;;;;;;3.72;100.00;100187.53;5013769;28;20188;-50
2022/01/06 00:47:55;;;;;;;5.60;3.40;;;;;;;3.72;100.00;100182.41;5015171;28;20218;-50
2022/01/06 00:50:20;;;;;;;5.67;3.47;;;;;;;3.72;100.00;100184.09;5014563;28;20203;-50
2022/01/06 00:52:46;;;;;;;7.43;4.00;;;;;;;3.73;100.00;100180.72;5020203;28;20554;-50
2022/01/06 00:55:11;;;;;;;9.40;3.40;;;;;;;3.75;100.00;100181.59;5018410;28;20870;-49
2022/01/06 00:57:36;;;;;;;5.87;3.73;;;;;;;3.71;100.00;100180.69;5022772;28;20208;-49
2022/01/06 01:00:03;;;;;;;7.30;3.40;;;;;;;3.69;100.00;100176.38;5014721;28;20818;-49
2022/01/06 01:02:28;;;;;;;6.67;3.43;;;;;;;3.66;100.00;100174.63;5021828;28;20187;-50
2022/01/06 01:04:54;;;;;;;7.33;3.20;;;;;;;3.63;100.00;100180.56;5016851;28;20649;-50
2022/01/06 01:07:19;;;;;;;5.23;3.70;;;;;;;3.62;100.00;100177.97;5019274;28;20676;-49
2022/01/06 01:09:45;;;;;;;6.67;3.57;;;;;;;3.60;100.00;100185.63;5016796;28;20642;-49
2022/01/06 01:12:10;;;;;;;9.83;3.90;;;;;;;3.58;100.00;100178.75;5023346;28;20240;-49
2022/01/06 01:14:55;;;;;;;5.43;3.57;;;;;;;3.54;100.00;100190.66;5016530;28;20196;-50
2022/01/06 01:17:24;;;;;;;9.27;3.63;;;;;;;3.50;100.00;100184.59;5016050;28;20221;-52
2022/01/06 01:19:49;;;;;;;6.73;3.90;;;;;;;3.51;100.00;100190.56;5015817;28;20271;-49
2022/01/06 01:22:14;;;;;;;6.77;3.43;;;;;;;3.50;100.00;100199.94;5018590;28;20807;-50
2022/01/06 01:24:40;;;;;;;7.00;3.20;;;;;;;3.48;100.00;100205.88;5016262;28;20216;-50
2022/01/06 01:27:07;;;;;;;9.47;4.20;;;;;;;3.47;100.00;100206.69;5017007;28;20236;-50
2022/01/06 01:29:40;;;;;;;10.83;4.17;;;;;;;3.46;100.00;100207.53;5017999;28;20198;-49
2022/01/06 01:32:06;;;;;;;8.63;4.10;;;;;;;3.46;100.00;100210.97;5021834;28;20183;-49
2022/01/06 01:34:31;;;;;;;9.57;4.07;;;;;;;3.46;100.00;100216.09;5024190;28;20273;-50
2022/01/06 01:36:56;;;;;;;9.47;5.07;;;;;;;3.46;100.00;100220.31;5022330;28;20215;-50
2022/01/06 01:39:23;;;;;;;7.23;3.80;;;;;;;3.46;100.00;100217.75;5017400;28;20653;-49
2022/01/06 01:41:49;;;;;;;8.77;3.90;;;;;;;3.47;100.00;100217.81;5020312;28;20191;-49
2022/01/06 01:44:18;;;;;;;8.80;4.27;;;;;;;3.49;100.00;100233.19;5024993;28;20215;-50
2022/01/06 01:46:47;;;;;;;8.13;3.97;;;;;;;3.51;100.00;100227.25;5032020;28;20249;-50
2022/01/06 01:51:49;;;;;;;6.03;3.27;;;;;;;3.49;100.00;100228.91;5041076;28;20183;-50
2022/01/06 01:54:15;;;;;;;8.17;3.30;;;;;;;3.50;100.00;100234.91;5022601;28;20237;-50
2022/01/06 01:56:40;;;;;;;8.33;3.90;;;;;;;3.50;100.00;100234.91;5013752;28;20302;-50
2022/01/06 01:59:06;;;;;;;8.27;3.97;;;;;;;3.47;100.00;100238.28;5022872;28;20210;-49
2022/01/06 02:01:31;;;;;;;6.33;3.83;;;;;;;3.49;100.00;100240.84;5018044;28;20184;-49
2022/01/06 02:03:57;;;;;;;10.20;4.67;;;;;;;3.49;100.00;100233.19;5017569;28;20198;-49
2022/01/06 02:06:23;;;;;;;11.30;4.77;;;;;;;3.47;100.00;100235.72;5018139;28;20196;-50
2022/01/06 02:08:51;;;;;;;7.37;3.83;;;;;;;3.47;100.00;100238.28;5015391;28;20572;-50
2022/01/06 02:11:16;;;;;;;6.83;3.43;;;;;;;3.45;100.00;100234.81;5015701;28;20202;-49
2022/01/06 02:13:52;;;;;;;5.50;3.43;;;;;;;3.46;100.00;100238.22;5015114;28;20660;-50
2022/01/06 02:16:20;;;;;;;6.70;3.57;;;;;;;3.46;100.00;100238.22;5019477;28;20703;-51
2022/01/06 02:18:46;;;;;;;5.67;3.30;;;;;;;3.45;100.00;100234.81;5020514;28;20207;-49
2022/01/06 02:21:11;;;;;;;6.73;3.67;;;;;;;3.45;100.00;100237.38;5019583;28;20848;-49
2022/01/06 02:23:36;;;;;;;7.07;3.93;;;;;;;3.46;100.00;100244.22;5019195;28;20913;-49
2022/01/06 02:26:02;;;;;;;6.03;3.23;;;;;;;3.46;100.00;100239.13;5006080;28;21038;-49
2022/01/06 02:28:28;;;;;;;8.77;3.40;;;;;;;3.46;100.00;100238.22;5013456;28;20222;-49
2022/01/06 02:30:55;;;;;;;8.80;4.17;;;;;;;3.46;100.00;100243.34;5014900;28;20197;-49
2022/01/06 02:33:21;;;;;;;8.53;3.53;;;;;;;3.46;100.00;100256.16;5020037;28;20192;-50
2022/01/06 02:35:48;;;;;;;7.63;3.50;;;;;;;3.44;100.00;100243.34;5018311;28;20273;-49
2022/01/06 02:38:13;;;;;;;8.90;4.10;;;;;;;3.43;100.00;100256.97;5017710;28;20303;-50
2022/01/06 02:40:39;;;;;;;6.33;3.53;;;;;;;3.42;100.00;100257.78;5012239;28;20696;-50
2022/01/06 02:43:07;;;;;;;6.33;3.27;;;;;;;3.44;100.00;100253.56;5016429;28;20608;-49
2022/01/06 02:45:33;;;;;;;6.30;3.47;;;;;;;3.44;100.00;100252.69;5017180;28;20294;-49
2022/01/06 02:48:00;;;;;;;7.33;3.73;;;;;;;3.43;100.00;100256.06;5013322;28;20207;-49
2022/01/06 02:50:26;;;;;;;5.87;3.30;;;;;;;3.43;100.00;100263.75;5016781;28;20194;-50
2022/01/06 02:52:51;;;;;;;8.57;3.73;;;;;;;3.44;100.00;100265.47;5019968;28;20608;-50
2022/01/06 02:55:17;;;;;;;5.97;3.40;;;;;;;3.46;100.00;100266.38;5014024;28;20191;-49
2022/01/06 02:57:44;;;;;;;6.90;3.30;;;;;;;3.45;100.00;100274.88;5021713;28;20623;-49
2022/01/06 03:00:13;;;;;;;6.13;3.80;;;;;;;3.44;100.00;100266.34;5023377;28;20197;-51
2022/01/06 03:02:41;;;;;;;7.10;3.23;;;;;;;3.43;100.00;100277.41;5023878;28;20187;-49
2022/01/06 03:05:07;;;;;;;5.77;3.70;;;;;;;3.45;100.00;100285.13;5019716;28;20539;-49
2022/01/06 03:07:32;;;;;;;6.73;3.70;;;;;;;3.45;100.00;100275.75;5022921;28;20241;-49
2022/01/06 03:09:59;;;;;;;7.57;3.60;;;;;;;3.46;100.00;100285.16;5022692;28;20655;-49
2022/01/06 03:12:32;;;;;;;6.00;3.40;;;;;;;3.44;100.00;100285.94;5017912;28;20195;-49
2022/01/06 03:14:58;;;;;;;7.73;3.60;;;;;;;3.44;100.00;100285.94;5024940;28;20207;-49
2022/01/06 03:17:23;;;;;;;8.37;4.07;;;;;;;3.44;100.00;100291.06;5018693;28;20223;-50
2022/01/06 03:19:48;;;;;;;8.87;4.07;;;;;;;3.43;100.00;100295.34;5021934;28;20191;-50
2022/01/06 03:22:14;;;;;;;7.03;3.30;;;;;;;3.42;100.00;100293.59;5021913;28;20334;-50
2022/01/06 03:24:40;;;;;;;7.07;3.43;;;;;;;3.42;100.00;100301.28;5025761;28;20187;-49
2022/01/06 03:27:05;;;;;;;8.37;4.00;;;;;;;3.41;100.00;100301.22;5018983;28;20243;-49
2022/01/06 03:29:31;;;;;;;7.60;3.63;;;;;;;3.41;100.00;100303.78;5017837;28;20196;-50
2022/01/06 03:31:58;;;;;;;8.80;4.30;;;;;;;3.39;100.00;100308.88;5020691;28;20191;-49
2022/01/06 03:34:23;;;;;;;5.77;3.83;;;;;;;3.38;100.00;100317.38;5024429;28;20203;-49
2022/01/06 03:36:49;;;;;;;6.57;3.43;;;;;;;3.38;100.00;100321.66;5019525;28;20204;-49
2022/01/06 03:39:14;;;;;;;9.90;3.70;;;;;;;3.37;100.00;100314.81;5015722;28;20270;-51
2022/01/06 03:41:39;;;;;;;6.03;3.57;;;;;;;3.37;100.00;100319.94;5017489;28;20279;-49
2022/01/06 03:44:05;;;;;;;8.40;3.83;;;;;;;3.36;100.00;100324.16;5026595;28;20188;-49
2022/01/06 03:46:30;;;;;;;6.73;3.63;;;;;;;3.39;100.00;100326.78;5021823;28;20195;-49
2022/01/06 03:48:56;;;;;;;8.73;3.70;;;;;;;3.38;100.00;100326.78;5015800;28;20295;-49
2022/01/06 03:51:23;;;;;;;6.67;3.53;;;;;;;3.35;100.00;100335.22;5017688;28;20199;-49
2022/01/06 03:53:49;;;;;;;6.70;3.80;;;;;;;3.37;100.00;100331.00;5027029;28;20198;-49
2022/01/06 03:56:15;;;;;;;7.23;3.70;;;;;;;3.33;100.00;100326.66;5015448;28;20207;-49
2022/01/06 03:58:40;;;;;;;6.93;3.70;;;;;;;3.31;100.00;100318.09;5021998;28;20224;-51
2022/01/06 04:01:07;;;;;;;6.83;4.10;;;;;;;3.29;100.00;100312.09;5019942;28;20672;-49
2022/01/06 04:03:32;;;;;;;6.70;4.07;;;;;;;3.24;100.00;100323.91;5013368;28;20626;-49
2022/01/06 04:05:58;;;;;;;6.40;3.87;;;;;;;3.20;100.00;100338.34;5020159;28;20208;-49
2022/01/06 04:08:23;;;;;;;7.33;4.33;;;;;;;3.17;100.00;100333.13;5022223;28;20220;-49
2022/01/06 04:10:48;;;;;;;8.80;4.47;;;;;;;3.14;100.00;100333.94;5019518;28;20750;-49
2022/01/06 04:13:14;;;;;;;9.73;4.30;;;;;;;3.12;100.00;100338.16;5017190;28;20745;-50
2022/01/06 04:15:39;;;;;;;7.90;4.03;;;;;;;3.11;100.00;100344.09;5024715;28;20221;-49
2022/01/06 04:18:04;;;;;;;6.33;4.17;;;;;;;3.11;100.00;100348.34;5020558;28;20219;-50
2022/01/06 04:20:30;;;;;;;7.30;4.40;;;;;;;3.09;100.00;100339.78;5020995;28;20678;-49
2022/01/06 04:22:55;;;;;;;6.07;4.03;;;;;;;3.06;100.00;100340.56;5014610;28;20200;-49
2022/01/06 04:25:21;;;;;;;7.63;4.13;;;;;;;3.04;100.00;100347.34;5018186;28;20203;-49
2022/01/06 04:27:46;;;;;;;7.60;4.07;;;;;;;3.02;100.00;100338.78;5019471;28;20677;-50
2022/01/06 04:30:12;;;;;;;7.07;4.03;;;;;;;2.99;100.00;100338.72;5018632;28;20274;-50
2022/01/06 04:32:38;;;;;;;7.50;4.27;;;;;;;2.96;100.00;100338.63;5026036;28;20260;-49
2022/01/06 04:35:05;;;;;;;7.60;4.60;;;;;;;2.92;100.00;100347.94;5020443;28;22035;-49
2022/01/06 04:37:30;;;;;;;10.47;4.70;;;;;;;2.88;100.00;100348.69;5020892;28;20285;-49
2022/01/06 04:39:56;;;;;;;7.63;4.23;;;;;;;2.85;100.00;100353.72;5014704;28;20188;-50
2022/01/06 04:42:21;;;;;;;7.67;4.53;;;;;;;2.82;100.00;100346.84;5022231;28;20667;-49
2022/01/06 04:44:46;;;;;;;8.33;4.57;;;;;;;2.80;100.00;100350.22;5020174;28;20200;-50
2022/01/06 04:47:12;;;;;;;7.40;4.40;;;;;;;2.81;100.00;100355.34;5017284;28;20215;-49
2022/01/06 04:49:37;;;;;;;7.60;4.20;;;;;;;2.78;100.00;100364.66;5020950;28;20223;-50
2022/01/06 04:52:03;;;;;;;10.43;5.00;;;;;;;2.77;100.00;100365.47;5012380;28;20592;-49
2022/01/06 04:54:28;;;;;;;6.67;4.50;;;;;;;2.70;100.00;100364.47;5024325;28;20290;-50
2022/01/06 04:56:54;;;;;;;9.67;5.00;;;;;;;2.67;100.00;100365.22;5015257;28;20271;-49
2022/01/06 04:59:19;;;;;;;6.97;5.00;;;;;;;2.65;100.00;100371.97;5016061;28;20191;-50
2022/01/06 05:01:44;;;;;;;8.47;4.70;;;;;;;2.57;100.00;100378.59;5021290;28;20192;-50
2022/01/06 05:04:10;;;;;;;7.80;4.40;;;;;;;2.51;100.00;100378.44;5013125;28;20192;-49
2022/01/06 05:06:35;;;;;;;8.27;5.10;;;;;;;2.42;100.00;100371.44;5015743;28;20559;-50
2022/01/06 05:09:02;;;;;;;6.93;4.20;;;;;;;2.35;100.00;100379.75;5017335;28;20192;-49
2022/01/06 05:11:27;;;;;;;5.90;4.50;;;;;;;2.26;100.00;100373.59;5011327;28;20192;-49
2022/01/06 05:13:53;;;;;;;10.57;5.37;;;;;;;2.21;100.00;100385.38;5015670;28;20566;-49
2022/01/06 05:16:18;;;;;;;7.63;4.90;;;;;;;2.18;100.00;100386.97;5025485;28;20262;-49
2022/01/06 05:18:44;;;;;;;9.43;5.00;;;;;;;2.17;100.00;100385.25;5015224;28;20311;-49
2022/01/06 05:21:09;;;;;;;6.50;4.57;;;;;;;2.12;100.00;100385.97;5017420;28;20361;-50
2022/01/06 05:23:35;;;;;;;7.17;4.50;;;;;;;2.12;100.00;100392.75;5016902;28;20194;-49
2022/01/06 05:26:01;;;;;;;6.47;4.20;;;;;;;2.14;100.00;100396.22;5011704;28;20195;-51
2022/01/06 05:28:26;;;;;;;8.03;5.33;;;;;;;2.16;100.00;100396.28;5010406;28;20207;-49
2022/01/06 05:30:52;;;;;;;7.37;5.10;;;;;;;2.18;100.00;100400.59;5016160;28;20570;-50
2022/01/06 05:33:18;;;;;;;8.17;5.00;;;;;;;2.23;100.00;100401.59;5018482;28;20230;-50
2022/01/06 05:35:43;;;;;;;6.10;4.93;;;;;;;2.25;100.00;100407.63;5029515;28;20270;-50
2022/01/06 05:38:09;;;;;;;5.50;4.80;;;;;;;2.28;100.00;100410.22;5017644;28;20752;-50
2022/01/06 05:40:34;;;;;;;7.80;4.90;;;;;;;2.32;100.00;100402.66;5014304;28;20644;-50
2022/01/06 05:42:59;;;;;;;7.67;5.13;;;;;;;2.35;100.00;100408.69;5013954;28;20209;-50
2022/01/06 05:45:26;;;;;;;9.00;4.73;;;;;;;2.38;100.00;100411.34;5011490;28;20198;-50
2022/01/06 05:47:51;;;;;;;4.80;4.20;;;;;;;2.39;100.00;100412.22;5017386;28;20388;-50
2022/01/06 05:50:17;;;;;;;6.30;5.37;;;;;;;2.42;100.00;100415.72;5016608;28;20219;-50
2022/01/06 05:52:42;;;;;;;8.83;5.53;;;;;;;2.46;100.00;100411.53;5036934;28;20298;-51
2022/01/06 05:55:08;;;;;;;9.70;5.73;;;;;;;2.48;100.00;100425.22;5016409;28;20227;-50
2022/01/06 05:57:34;;;;;;;8.67;4.77;;;;;;;2.51;100.00;100427.88;5013439;28;20696;-50
2022/01/06 05:59:59;;;;;;;6.97;4.93;;;;;;;2.52;100.00;100429.59;5013374;28;20199;-50
2022/01/06 06:02:24;;;;;;;8.60;5.27;;;;;;;2.55;100.00;100434.78;5010207;28;20211;-50
2022/01/06 06:04:50;;;;;;;7.47;5.07;;;;;;;2.57;100.00;100434.81;5016776;28;20278;-50
2022/01/06 06:07:17;;;;;;;6.13;4.63;;;;;;;2.59;100.00;100434.03;5016149;28;20671;-50
2022/01/06 06:09:43;;;;;;;6.30;4.83;;;;;;;2.61;100.00;100444.31;5015462;28;20644;-50
2022/01/06 06:12:09;;;;;;;7.03;4.73;;;;;;;2.64;100.00;100448.63;5016051;28;20192;-50
2022/01/06 06:14:34;;;;;;;8.00;4.80;;;;;;;2.67;100.00;100451.25;5013408;28;20222;-50
2022/01/06 06:17:00;;;;;;;6.53;4.50;;;;;;;2.67;100.00;100454.66;5016700;28;20220;-50
2022/01/06 06:19:25;;;;;;;6.87;4.40;;;;;;;2.70;100.00;100457.31;5018594;28;20210;-50
2022/01/06 06:21:50;;;;;;;7.77;4.10;;;;;;;2.71;100.00;100455.63;5018829;28;20212;-50
2022/01/06 06:24:16;;;;;;;5.83;3.77;;;;;;;2.72;100.00;100457.38;5014487;28;20191;-50
2022/01/06 06:26:41;;;;;;;4.90;4.40;;;;;;;2.71;100.00;100459.03;5015376;28;20191;-50
2022/01/06 06:29:07;;;;;;;7.10;4.70;;;;;;;2.69;100.00;100459.84;5010524;28;20767;-51
2022/01/06 06:31:32;;;;;;;8.40;4.70;;;;;;;2.66;100.00;100455.50;5005407;28;20560;-50
2022/01/06 06:33:57;;;;;;;8.40;4.60;;;;;;;2.62;100.00;100463.91;5011462;28;20768;-50
2022/01/06 06:36:23;;;;;;;5.93;4.43;;;;;;;2.59;100.00;100467.25;5019726;28;20265;-50
2022/01/06 06:38:49;;;;;;;6.33;4.60;;;;;;;2.60;100.00;100460.47;5019666;28;20222;-50
2022/01/06 06:41:14;;;;;;;8.27;4.90;;;;;;;2.58;100.00;100469.75;5018185;28;20196;-50
2022/01/06 06:43:40;;;;;;;8.10;4.73;;;;;;;2.57;100.00;100478.25;5019869;28;20198;-50
2022/01/06 06:46:05;;;;;;;5.57;4.50;;;;;;;2.55;100.00;100470.56;5018564;28;20879;-50
2022/01/06 06:48:30;;;;;;;6.43;4.80;;;;;;;2.57;100.00;100480.81;5018046;28;20316;-50
2022/01/06 06:50:58;;;;;;;5.53;5.03;;;;;;;2.58;100.00;100482.53;5013920;28;20215;-50
2022/01/06 06:53:23;;;;;;;7.23;4.80;;;;;;;2.59;100.00;100489.38;5020922;28;20245;-50
2022/01/06 06:55:49;;;;;;;5.30;4.70;;;;;;;2.61;100.00;100489.41;5036645;28;20529;-50
2022/01/06 06:58:14;;;;;;;8.50;6.30;;;;;;;2.67;100.00;100494.69;5035172;28;20207;-50
2022/01/06 07:00:40;;;;;;;7.67;5.80;;;;;;;2.69;100.00;100490.50;5024103;28;20201;-50
2022/01/06 07:03:06;;;;;;;6.50;5.30;;;;;;;2.72;100.00;100498.25;5020477;28;20674;-50
2022/01/06 07:05:31;;;;;;;8.47;5.57;;;;;;;2.73;100.00;100498.28;5017229;28;20203;-50
2022/01/06 07:07:56;;;;;;;6.03;5.07;;;;;;;2.77;100.00;100498.38;5023891;28;20203;-48
2022/01/06 07:10:22;;;;;;;7.53;5.43;;;;;;;2.78;100.00;100495.00;5021574;28;20644;-49
2022/01/06 07:12:47;;;;;;;5.60;5.03;;;;;;;2.78;100.00;100497.53;5019764;28;20542;-48
2022/01/06 07:15:14;;;;;;;7.53;4.93;;;;;;;2.75;100.00;100503.41;5016502;28;20194;-49
2022/01/06 07:17:41;;;;;;;8.63;5.13;;;;;;;2.74;100.00;100507.69;5021811;28;20221;-49
2022/01/06 07:20:07;;;;;;;8.00;4.80;;;;;;;2.75;100.00;100511.09;5018935;28;20195;-49
2022/01/06 07:22:32;;;;;;;5.57;4.57;;;;;;;2.77;100.00;100521.38;5028937;28;20219;-49
2022/01/06 07:24:58;;;;;;;4.73;4.30;;;;;;;2.78;100.00;100521.41;5028000;28;20219;-49
2022/01/06 07:27:23;;;;;;;7.13;5.13;;;;;;;2.82;100.00;100524.91;5021445;28;20392;-49
2022/01/06 07:29:49;;;;;;;5.50;4.90;;;;;;;2.84;100.00;100518.13;5019245;28;20191;-51
2022/01/06 07:32:14;;;;;;;5.83;4.90;;;;;;;2.81;100.00;100518.06;5026801;28;20192;-50
2022/01/06 07:34:39;;;;;;;8.43;5.97;;;;;;;2.82;100.00;100525.78;5024686;28;20195;-50
2022/01/06 07:37:05;;;;;;;6.87;4.87;;;;;;;2.83;100.00;100531.75;5027223;28;20226;-49
2022/01/06 07:39:30;;;;;;;6.07;4.30;;;;;;;2.83;100.00;100526.63;5023823;28;20203;-50
2022/01/06 07:41:56;;;;;;;6.83;5.03;;;;;;;2.87;100.00;100534.41;5028927;28;20188;-49
2022/01/06 07:44:21;;;;;;;6.03;4.57;;;;;;;2.88;100.00;100537.84;5023737;28;20223;-50
2022/01/06 07:46:47;;;;;;;6.63;4.87;;;;;;;2.88;100.00;100535.28;5019194;28;20563;-49
2022/01/06 07:49:13;;;;;;;5.67;5.07;;;;;;;2.90;100.00;100539.63;5033033;28;20636;-50
2022/01/06 07:51:39;;;;;;;5.23;4.50;;;;;;;2.94;100.00;100542.25;5021715;28;20249;-49
2022/01/06 07:54:05;;;;;;;7.30;4.67;;;;;;;2.97;100.00;100547.47;5018680;28;20583;-49
2022/01/06 07:56:30;;;;;;;5.87;4.37;;;;;;;2.99;100.00;100549.22;5014823;28;20703;-49
2022/01/06 07:58:56;;;;;;;7.60;5.20;;;;;;;3.02;100.00;100553.56;5019357;28;20272;-49
2022/01/06 08:01:22;;;;;;;6.57;4.77;;;;;;;3.05;100.00;100561.28;5027951;28;20274;-49
2022/01/06 08:03:47;;;;;;;5.93;5.03;;;;;;;3.09;100.00;100567.38;5018581;28;20194;-49
2022/01/06 08:06:14;;;;;;;5.73;4.77;;;;;;;3.12;100.00;100568.31;5016183;28;20203;-49
2022/01/06 08:08:40;;;;;;;7.20;4.73;;;;;;;3.13;100.00;100564.94;5027044;28;20265;-49
2022/01/06 08:11:06;;;;;;;7.03;5.30;;;;;;;3.17;100.00;100566.75;5024645;28;20296;-51
2022/01/06 08:13:31;;;;;;;8.23;5.37;;;;;;;3.19;100.00;100557.41;5020826;28;20270;-50
2022/01/06 08:15:57;;;;;;;6.13;5.43;;;;;;;3.23;100.00;100562.59;5012068;28;20386;-48
2022/01/06 08:18:23;;;;;;;6.00;5.33;;;;;;;3.27;100.00;100565.28;5018020;28;20242;-48
2022/01/06 08:20:49;;;;;;;7.27;5.60;;;;;;;3.30;100.00;100557.69;5014836;28;20192;-51
2022/01/06 08:23:14;;;;;;;6.57;5.07;;;;;;;3.34;100.00;100568.84;5023668;28;20213;-49
2022/01/06 08:25:40;;;;;;;8.63;5.23;;;;;;;3.37;100.00;100562.97;5015162;28;20291;-51
2022/01/06 08:28:05;;;;;;;7.73;5.87;;;;;;;3.39;100.00;100567.28;5021644;28;20211;-49
2022/01/06 08:30:31;;;;;;;7.43;5.97;;;;;;;3.40;100.00;100565.59;5013612;28;20188;-51
2022/01/06 08:32:57;;;;;;;10.97;7.00;;;;;;;3.42;100.00;100571.59;5020192;28;20607;-49
2022/01/06 08:35:23;;;;;;;11.87;8.93;;;;;;;3.44;100.00;100572.50;5015587;28;20192;-51
2022/01/06 08:37:48;;;;;;;19.50;12.07;;;;;;;3.46;100.00;100579.41;5016753;28;20220;-48
2022/01/06 08:40:14;;;;;;;22.90;12.40;;;;;;;3.49;100.00;100582.03;5016176;28;20195;-49
2022/01/06 08:42:39;;;;;;;24.13;12.90;;;;;;;3.55;100.00;100578.78;5019445;28;20195;-49
2022/01/06 08:45:05;;;;;;;22.40;13.17;;;;;;;3.62;100.00;100584.91;5013237;28;20188;-51
2022/01/06 08:47:31;;;;;;;17.43;11.30;;;;;;;3.65;100.00;100590.97;5019336;28;20842;-49
2022/01/06 08:49:57;;;;;;;13.67;8.23;;;;;;;3.70;100.00;100587.66;5015082;28;20196;-51
2022/01/06 08:52:22;;;;;;;9.17;6.93;;;;;;;3.74;100.00;100589.44;5016041;28;20196;-51
2022/01/06 08:54:48;;;;;;;7.23;5.27;;;;;;;3.78;100.00;100598.94;5018595;28;20223;-51
2022/01/06 08:57:13;;;;;;;7.37;5.47;;;;;;;3.81;100.00;100606.69;5016533;28;20219;-50
2022/01/06 08:59:39;;;;;;;8.13;5.40;;;;;;;3.81;100.00;100594.72;5017896;28;20613;-51
2022/01/06 09:02:04;;;;;;;6.13;4.97;;;;;;;3.83;100.00;100594.78;5015596;28;22152;-49
2022/01/06 09:04:29;;;;;;;6.23;5.30;;;;;;;3.87;100.00;100593.16;5022655;28;20269;-51
2022/01/06 09:06:55;;;;;;;6.13;4.33;;;;;;;3.89;100.00;100600.03;5019456;28;20180;-49
2022/01/06 09:09:21;;;;;;;6.17;4.70;;;;;;;3.95;100.00;100605.31;5015646;28;20314;-51
2022/01/06 09:11:47;;;;;;;4.90;4.43;;;;;;;4.04;100.00;100601.22;5024259;28;20576;-50
2022/01/06 09:14:13;;;;;;;5.07;4.50;;;;;;;4.16;100.00;100609.16;5020917;28;20281;-50
2022/01/06 09:16:39;;;;;;;7.17;5.30;;;;;;;4.25;100.00;100614.53;5019407;28;20443;-48
2022/01/06 09:19:04;;;;;;;12.83;9.50;;;;;;;4.35;100.00;100617.28;5017893;28;20213;-49
2022/01/06 09:21:30;;;;;;;10.57;7.17;;;;;;;4.47;100.00;100627.78;5017211;28;20195;-49
2022/01/06 09:23:59;;;;;;;9.43;6.47;;;;;;;4.61;100.00;100627.25;5014768;28;20641;-49
2022/01/06 09:26:26;;;;;;;7.57;5.37;;;;;;;4.72;100.00;100621.47;5015002;28;20187;-49
2022/01/06 09:28:52;;;;;;;7.63;5.90;;;;;;;4.84;100.00;100632.84;5009593;28;20216;-49
2022/01/06 09:31:17;;;;;;;8.00;5.27;;;;;;;4.97;100.00;100626.22;5024050;28;20630;-48
2022/01/06 09:33:43;;;;;;;7.27;5.73;;;;;;;5.09;100.00;100631.59;5016226;28;20190;-48
2022/01/06 09:36:09;;;;;;;6.23;5.10;;;;;;;5.14;100.00;100632.56;5024870;28;20208;-49
2022/01/06 09:38:34;;;;;;;7.00;5.67;;;;;;;5.18;100.00;100642.06;5018953;28;20207;-49
2022/01/06 09:41:06;;;;;;;8.03;5.50;;;;;;;5.19;100.00;100645.47;5012856;28;20749;-49
2022/01/06 09:43:32;;;;;;;9.30;5.57;;;;;;;5.17;100.00;100648.00;5013662;28;20192;-49
2022/01/06 09:46:09;;;;;;;7.70;5.87;;;;;;;5.12;100.00;100643.63;5019201;28;20273;-49
2022/01/06 09:48:36;;;;;;;5.37;4.53;;;;;;;5.05;100.00;100652.91;5014547;28;20205;-49
2022/01/06 09:51:02;;;;;;;8.57;6.03;;;;;;;5.04;100.00;100653.75;5010444;28;20757;-49
2022/01/06 09:53:28;;;;;;;6.53;5.17;;;;;;;4.99;100.00;100653.63;5015497;28;20621;-51
2022/01/06 09:55:53;;;;;;;5.80;4.73;;;;;;;4.98;100.00;100651.94;5014768;28;20238;-51
2022/01/06 09:58:28;;;;;;;6.40;4.70;;;;;;;4.98;100.00;100645.91;5013527;28;20208;-49
2022/01/06 10:00:55;;;;;;;6.37;5.03;;;;;;;4.97;100.00;100654.44;5015922;28;20651;-48
2022/01/06 10:03:31;;;;;;;5.53;4.60;;;;;;;4.97;100.00;100657.00;5015418;28;20710;-49
2022/01/06 10:06:11;;;;;;;7.10;5.60;;;;;;;5.01;100.00;100651.13;5023517;28;20192;-49
2022/01/06 10:08:36;;;;;;;6.27;4.83;;;;;;;5.02;100.00;100648.56;5019412;28;20218;-49
2022/01/06 10:11:19;;;;;;;6.93;5.93;;;;;;;5.05;100.00;100650.34;5020609;28;20196;-49
2022/01/06 10:13:52;;;;;;;7.37;5.23;;;;;;;5.09;100.00;100657.25;5022971;28;20501;-48
2022/01/06 10:16:19;;;;;;;5.53;4.60;;;;;;;5.20;100.00;100652.34;5024726;28;20213;-48
2022/01/06 10:18:56;;;;;;;10.43;5.50;;;;;;;5.34;100.00;100652.59;5013346;28;20211;-49
2022/01/06 10:21:21;;;;;;;9.00;6.00;;;;;;;5.42;100.00;100652.75;5017527;28;20208;-48
2022/01/06 10:24:11;;;;;;;8.03;5.90;;;;;;;5.51;100.00;100654.59;5016320;28;20272;-48
2022/01/06 10:26:38;;;;;;;9.37;6.07;;;;;;;5.54;100.00;100652.94;5020740;28;20189;-48
2022/01/06 10:29:07;;;;;;;7.63;5.40;;;;;;;5.60;100.00;100659.91;5016002;28;20536;-49
2022/01/06 10:31:33;;;;;;;8.93;6.00;;;;;;;5.68;100.00;100654.88;5016979;28;20196;-50
2022/01/06 10:34:05;;;;;;;7.03;5.40;;;;;;;5.78;100.00;100651.63;5022195;28;20249;-48
2022/01/06 10:36:32;;;;;;;8.00;5.67;;;;;;;5.87;100.00;100645.78;5020507;28;20244;-49
2022/01/06 10:38:59;;;;;;;6.20;5.40;;;;;;;5.91;100.00;100647.56;5017341;28;20256;-50
2022/01/06 10:41:27;;;;;;;5.60;5.00;;;;;;;5.94;100.00;100647.63;5017291;28;20194;-51
2022/01/06 10:43:55;;;;;;;7.57;5.10;;;;;;;5.98;100.00;100648.53;5014455;28;20188;-51
2022/01/06 10:46:47;;;;;;;7.63;5.10;;;;;;;6.07;100.00;100647.00;5016563;28;20662;-48
2022/01/06 10:49:17;;;;;;;8.17;5.13;;;;;;;6.18;100.00;100648.84;5013750;28;20288;-49
2022/01/06 10:51:48;;;;;;;6.73;4.77;;;;;;;6.29;100.00;100655.00;5019164;28;20279;-49
2022/01/06 10:54:21;;;;;;;5.57;4.53;;;;;;;6.39;100.00;100653.44;5021078;28;20224;-49
2022/01/06 10:56:57;;;;;;;9.43;5.20;;;;;;;6.47;100.00;100662.16;5023566;28;20565;-49
2022/01/06 10:59:29;;;;;;;4.80;4.30;;;;;;;6.48;100.00;100651.03;5022134;28;20197;-51
2022/01/06 11:01:55;;;;;;;7.57;4.97;;;;;;;6.53;100.00;100653.66;5021450;28;20213;-48
2022/01/06 11:04:20;;;;;;;9.03;5.30;;;;;;;6.53;100.00;100653.66;5024815;28;20288;-48
2022/01/06 11:06:46;;;;;;;5.77;4.60;;;;;;;6.57;100.00;100660.56;5017158;28;20710;-51
2022/01/06 11:09:12;;;;;;;6.63;4.73;;;;;;;6.70;100.00;100661.56;5018676;28;20197;-49
2022/01/06 11:14:23;;;;;;;7.03;5.50;;;;;;;7.23;100.00;100665.63;5025835;28;20233;-51
2022/01/06 11:16:49;;;;;;;8.00;5.50;;;;;;;7.39;100.00;100666.69;5010669;28;20223;-48
2022/01/06 11:19:14;;;;;;;8.53;6.07;;;;;;;7.41;100.00;100671.81;5017320;28;20190;-51
2022/01/06 11:21:43;;;;;;;7.40;5.43;;;;;;;7.39;100.00;100670.94;5016199;28;20191;-49
2022/01/06 11:24:15;;;;;;;8.03;4.87;;;;;;;7.30;100.00;100671.72;5015617;28;20186;-48
2022/01/06 11:26:43;;;;;;;10.03;6.57;;;;;;;7.17;100.00;100668.16;5013685;28;20202;-48
2022/01/06 11:29:11;;;;;;;8.90;6.50;;;;;;;7.11;100.00;100671.50;5015934;28;20190;-48
2022/01/06 11:31:42;;;;;;;10.20;6.80;;;;;;;7.06;100.00;100667.16;5015214;28;20271;-51
2022/01/06 11:34:17;;;;;;;9.37;6.17;;;;;;;7.01;100.00;100659.38;5016327;28;20199;-49